sensor_id;sensor_type;location;lat;lon;timestamp;temperature;humidity
11855;DHT22;5987;53.140;8.904;2023-09-30T00:01:16;13.50;99.90
11855;DHT22;5987;53.140;8.904;2023-09-30T00:04:20;13.40;99.90
11855;DHT22;5987;53.140;8.904;2023-09-30T00:07:24;13.50;99.90
11855;DHT22;5987;53.140;8.904;2023-09-30T00:10:28;13.50;99.90
11855;DHT22;5987;53.140;8.904;2023-09-30T00:13:33;13.50;99.90
11855;DHT22;5987;53.140;8.904;2023-09-30T00:16:38;13.40;99.90
11855;DHT22;5987;53.140;8.904;2023-09-30T00:19:42;13.40;99.90
11855;DHT22;5987;53.140;8.904;2023-09-30T00:22:46;13.40;99.90
11855;DHT22;5987;53.140;8.904;2023-09-30T00:25:50;13.30;99.90
11855;DHT22;5987;53.140;8.904;2023-09-30T00:28:54;13.40;99.90
11855;DHT22;5987;53.140;8.904;2023-09-30T00:31:59;13.30;99.90
11855;DHT22;5987;53.140;8.904;2023-09-30T00:35:03;13.20;99.90
11855;DHT22;5987;53.140;8.904;2023-09-30T00:38:13;13.30;99.90
11855;DHT22;5987;53.140;8.904;2023-09-30T00:41:17;13.20;99.90
11855;DHT22;5987;53.140;8.904;2023-09-30T00:44:21;13.30;99.90
11855;DHT22;5987;53.140;8.904;2023-09-30T00:47:26;13.20;99.90
11855;DHT22;5987;53.140;8.904;2023-09-30T00:50:31;13.20;99.90
11855;DHT22;5987;53.140;8.904;2023-09-30T00:53:35;13.20;99.90
11855;DHT22;5987;53.140;8.904;2023-09-30T00:56:44;13.10;99.90
11855;DHT22;5987;53.140;8.904;2023-09-30T00:59:50;13.10;99.90
11855;DHT22;5987;53.140;8.904;2023-09-30T01:02:56;13.00;99.90
11855;DHT22;5987;53.140;8.904;2023-09-30T01:06:06;13.10;99.90
11855;DHT22;5987;53.140;8.904;2023-09-30T01:09:10;13.10;99.90
11855;DHT22;5987;53.140;8.904;2023-09-30T01:12:15;13.10;99.90
11855;DHT22;5987;53.140;8.904;2023-09-30T01:15:19;13.10;99.90
11855;DHT22;5987;53.140;8.904;2023-09-30T01:18:24;13.10;99.90
11855;DHT22;5987;53.140;8.904;2023-09-30T01:21:28;13.10;99.90
11855;DHT22;5987;53.140;8.904;2023-09-30T01:24:38;13.10;99.90
11855;DHT22;5987;53.140;8.904;2023-09-30T01:27:43;13.20;99.90
11855;DHT22;5987;53.140;8.904;2023-09-30T01:30:47;13.10;99.90
11855;DHT22;5987;53.140;8.904;2023-09-30T01:33:51;13.10;99.90
11855;DHT22;5987;53.140;8.904;2023-09-30T01:36:57;13.00;99.90
11855;DHT22;5987;53.140;8.904;2023-09-30T01:40:03;13.00;99.90
11855;DHT22;5987;53.140;8.904;2023-09-30T01:43:10;13.00;99.90
11855;DHT22;5987;53.140;8.904;2023-09-30T01:46:15;13.00;99.90
11855;DHT22;5987;53.140;8.904;2023-09-30T01:49:19;13.00;99.90
11855;DHT22;5987;53.140;8.904;2023-09-30T01:52:26;13.00;99.90
11855;DHT22;5987;53.140;8.904;2023-09-30T01:55:31;13.00;99.90
11855;DHT22;5987;53.140;8.904;2023-09-30T01:58:35;13.10;99.90
11855;DHT22;5987;53.140;8.904;2023-09-30T02:01:38;13.10;99.90
11855;DHT22;5987;53.140;8.904;2023-09-30T02:04:42;13.10;99.90
11855;DHT22;5987;53.140;8.904;2023-09-30T02:07:46;13.20;99.90
11855;DHT22;5987;53.140;8.904;2023-09-30T02:10:52;13.20;99.90
11855;DHT22;5987;53.140;8.904;2023-09-30T02:13:55;13.20;99.90
11855;DHT22;5987;53.140;8.904;2023-09-30T02:16:59;13.20;99.90
11855;DHT22;5987;53.140;8.904;2023-09-30T02:20:04;13.20;99.90
11855;DHT22;5987;53.140;8.904;2023-09-30T02:23:10;13.10;99.90
11855;DHT22;5987;53.140;8.904;2023-09-30T02:26:15;13.10;99.90
11855;DHT22;5987;53.140;8.904;2023-09-30T02:29:19;13.10;99.90
11855;DHT22;5987;53.140;8.904;2023-09-30T02:32:23;13.10;99.90
11855;DHT22;5987;53.140;8.904;2023-09-30T02:35:27;13.10;99.90
11855;DHT22;5987;53.140;8.904;2023-09-30T02:38:31;13.10;99.90
11855;DHT22;5987;53.140;8.904;2023-09-30T02:41:36;13.10;99.90
11855;DHT22;5987;53.140;8.904;2023-09-30T02:44:40;13.10;99.90
11855;DHT22;5987;53.140;8.904;2023-09-30T02:47:43;13.10;99.90
11855;DHT22;5987;53.140;8.904;2023-09-30T02:50:47;13.10;99.90
11855;DHT22;5987;53.140;8.904;2023-09-30T02:53:51;13.10;99.90
11855;DHT22;5987;53.140;8.904;2023-09-30T02:56:56;13.10;99.90
11855;DHT22;5987;53.140;8.904;2023-09-30T03:00:00;13.00;99.90
11855;DHT22;5987;53.140;8.904;2023-09-30T03:03:13;13.00;99.90
11855;DHT22;5987;53.140;8.904;2023-09-30T03:06:17;13.00;99.90
11855;DHT22;5987;53.140;8.904;2023-09-30T03:09:22;13.10;99.90
11855;DHT22;5987;53.140;8.904;2023-09-30T03:12:27;13.00;99.90
11855;DHT22;5987;53.140;8.904;2023-09-30T03:15:31;13.00;99.90
11855;DHT22;5987;53.140;8.904;2023-09-30T03:18:35;12.90;99.90
11855;DHT22;5987;53.140;8.904;2023-09-30T03:21:39;13.00;99.90
11855;DHT22;5987;53.140;8.904;2023-09-30T03:24:43;13.00;99.90
11855;DHT22;5987;53.140;8.904;2023-09-30T03:27:48;13.10;99.90
11855;DHT22;5987;53.140;8.904;2023-09-30T03:30:52;13.00;99.90
11855;DHT22;5987;53.140;8.904;2023-09-30T03:33:56;13.00;99.90
11855;DHT22;5987;53.140;8.904;2023-09-30T03:37:00;13.00;99.90
11855;DHT22;5987;53.140;8.904;2023-09-30T03:40:05;12.90;99.90
11855;DHT22;5987;53.140;8.904;2023-09-30T03:43:16;13.00;99.90
11855;DHT22;5987;53.140;8.904;2023-09-30T03:46:21;13.00;99.90
11855;DHT22;5987;53.140;8.904;2023-09-30T03:49:24;13.00;99.90
11855;DHT22;5987;53.140;8.904;2023-09-30T03:52:28;13.00;99.90
11855;DHT22;5987;53.140;8.904;2023-09-30T03:55:35;13.00;99.90
11855;DHT22;5987;53.140;8.904;2023-09-30T03:58:41;13.00;99.90
11855;DHT22;5987;53.140;8.904;2023-09-30T04:01:46;13.00;99.90
11855;DHT22;5987;53.140;8.904;2023-09-30T04:04:50;13.00;99.90
11855;DHT22;5987;53.140;8.904;2023-09-30T04:07:56;13.00;99.90
11855;DHT22;5987;53.140;8.904;2023-09-30T04:11:00;13.00;99.90
11855;DHT22;5987;53.140;8.904;2023-09-30T04:14:07;12.90;99.90
11855;DHT22;5987;53.140;8.904;2023-09-30T04:17:11;12.90;99.90
11855;DHT22;5987;53.140;8.904;2023-09-30T04:20:14;12.90;99.90
11855;DHT22;5987;53.140;8.904;2023-09-30T04:23:25;13.00;99.90
11855;DHT22;5987;53.140;8.904;2023-09-30T04:26:29;13.00;99.90
11855;DHT22;5987;53.140;8.904;2023-09-30T04:29:34;13.00;99.90
11855;DHT22;5987;53.140;8.904;2023-09-30T04:32:38;13.00;99.90
11855;DHT22;5987;53.140;8.904;2023-09-30T04:35:42;13.00;99.90
11855;DHT22;5987;53.140;8.904;2023-09-30T04:38:46;13.00;99.90
11855;DHT22;5987;53.140;8.904;2023-09-30T04:41:50;13.00;99.90
11855;DHT22;5987;53.140;8.904;2023-09-30T04:44:55;13.00;99.90
11855;DHT22;5987;53.140;8.904;2023-09-30T04:47:58;13.00;99.90
11855;DHT22;5987;53.140;8.904;2023-09-30T04:51:06;13.00;99.90
11855;DHT22;5987;53.140;8.904;2023-09-30T04:54:11;13.10;99.90
11855;DHT22;5987;53.140;8.904;2023-09-30T04:57:15;13.00;99.90
11855;DHT22;5987;53.140;8.904;2023-09-30T05:00:20;13.00;99.90
11855;DHT22;5987;53.140;8.904;2023-09-30T05:03:28;13.00;99.90
11855;DHT22;5987;53.140;8.904;2023-09-30T05:06:32;13.00;99.90
11855;DHT22;5987;53.140;8.904;2023-09-30T05:09:36;13.00;99.90
11855;DHT22;5987;53.140;8.904;2023-09-30T05:12:40;13.00;99.90
11855;DHT22;5987;53.140;8.904;2023-09-30T05:15:50;13.00;99.90
11855;DHT22;5987;53.140;8.904;2023-09-30T05:18:54;12.90;99.90
11855;DHT22;5987;53.140;8.904;2023-09-30T05:21:58;12.90;99.90
11855;DHT22;5987;53.140;8.904;2023-09-30T05:25:03;12.90;99.90
11855;DHT22;5987;53.140;8.904;2023-09-30T05:28:08;12.90;99.90
11855;DHT22;5987;53.140;8.904;2023-09-30T05:31:15;12.80;99.90
11855;DHT22;5987;53.140;8.904;2023-09-30T05:34:19;12.80;99.90
11855;DHT22;5987;53.140;8.904;2023-09-30T05:37:22;12.90;99.90
11855;DHT22;5987;53.140;8.904;2023-09-30T05:40:27;12.90;99.90
11855;DHT22;5987;53.140;8.904;2023-09-30T05:43:33;12.90;99.90
11855;DHT22;5987;53.140;8.904;2023-09-30T05:46:38;12.90;99.90
11855;DHT22;5987;53.140;8.904;2023-09-30T05:49:42;12.80;99.90
11855;DHT22;5987;53.140;8.904;2023-09-30T05:52:45;12.90;99.90
11855;DHT22;5987;53.140;8.904;2023-09-30T05:55:49;12.90;99.90
11855;DHT22;5987;53.140;8.904;2023-09-30T05:58:53;12.80;99.90
11855;DHT22;5987;53.140;8.904;2023-09-30T06:01:58;12.70;99.90
11855;DHT22;5987;53.140;8.904;2023-09-30T06:05:02;12.70;99.90
11855;DHT22;5987;53.140;8.904;2023-09-30T06:08:08;12.70;99.90
11855;DHT22;5987;53.140;8.904;2023-09-30T06:11:16;12.80;99.90
11855;DHT22;5987;53.140;8.904;2023-09-30T06:14:21;12.80;99.90
11855;DHT22;5987;53.140;8.904;2023-09-30T06:17:26;12.60;99.90
11855;DHT22;5987;53.140;8.904;2023-09-30T06:20:30;12.70;99.90
11855;DHT22;5987;53.140;8.904;2023-09-30T06:23:33;12.80;99.90
11855;DHT22;5987;53.140;8.904;2023-09-30T06:26:37;12.90;99.90
11855;DHT22;5987;53.140;8.904;2023-09-30T06:29:41;13.10;99.90
11855;DHT22;5987;53.140;8.904;2023-09-30T06:32:47;13.10;99.90
11855;DHT22;5987;53.140;8.904;2023-09-30T06:35:51;13.20;99.90
11855;DHT22;5987;53.140;8.904;2023-09-30T06:38:55;13.30;99.90
11855;DHT22;5987;53.140;8.904;2023-09-30T06:42:00;13.50;99.90
11855;DHT22;5987;53.140;8.904;2023-09-30T06:45:04;13.50;99.90
11855;DHT22;5987;53.140;8.904;2023-09-30T06:48:11;13.70;99.90
11855;DHT22;5987;53.140;8.904;2023-09-30T06:51:15;13.70;99.90
11855;DHT22;5987;53.140;8.904;2023-09-30T06:54:19;13.90;99.90
11855;DHT22;5987;53.140;8.904;2023-09-30T06:57:23;13.90;99.90
11855;DHT22;5987;53.140;8.904;2023-09-30T07:00:26;14.00;99.90
11855;DHT22;5987;53.140;8.904;2023-09-30T07:03:32;14.10;99.90
11855;DHT22;5987;53.140;8.904;2023-09-30T07:06:36;14.20;99.90
11855;DHT22;5987;53.140;8.904;2023-09-30T07:09:40;14.40;99.90
11855;DHT22;5987;53.140;8.904;2023-09-30T07:12:43;14.30;99.90
11855;DHT22;5987;53.140;8.904;2023-09-30T07:15:47;14.40;99.90
11855;DHT22;5987;53.140;8.904;2023-09-30T07:18:53;14.50;99.90
11855;DHT22;5987;53.140;8.904;2023-09-30T07:21:57;14.60;99.90
11855;DHT22;5987;53.140;8.904;2023-09-30T07:25:07;14.70;99.90
11855;DHT22;5987;53.140;8.904;2023-09-30T07:28:11;14.80;99.90
11855;DHT22;5987;53.140;8.904;2023-09-30T07:31:15;14.80;99.90
11855;DHT22;5987;53.140;8.904;2023-09-30T07:34:20;15.00;99.90
11855;DHT22;5987;53.140;8.904;2023-09-30T07:37:24;15.10;99.90
11855;DHT22;5987;53.140;8.904;2023-09-30T07:40:28;15.10;99.90
11855;DHT22;5987;53.140;8.904;2023-09-30T07:43:31;15.10;99.90
11855;DHT22;5987;53.140;8.904;2023-09-30T07:46:35;15.30;99.90
11855;DHT22;5987;53.140;8.904;2023-09-30T07:49:40;15.40;99.90
11855;DHT22;5987;53.140;8.904;2023-09-30T07:52:44;15.50;99.90
11855;DHT22;5987;53.140;8.904;2023-09-30T07:55:48;15.60;99.90
11855;DHT22;5987;53.140;8.904;2023-09-30T07:58:52;15.60;99.90
11855;DHT22;5987;53.140;8.904;2023-09-30T08:01:55;15.70;99.90
11855;DHT22;5987;53.140;8.904;2023-09-30T08:05:01;15.70;99.90
11855;DHT22;5987;53.140;8.904;2023-09-30T08:08:06;15.90;99.90
11855;DHT22;5987;53.140;8.904;2023-09-30T08:11:09;15.90;99.90
11855;DHT22;5987;53.140;8.904;2023-09-30T08:14:14;16.10;99.90
11855;DHT22;5987;53.140;8.904;2023-09-30T08:17:18;16.20;99.90
11855;DHT22;5987;53.140;8.904;2023-09-30T08:20:23;16.20;99.90
11855;DHT22;5987;53.140;8.904;2023-09-30T08:23:27;16.40;99.90
11855;DHT22;5987;53.140;8.904;2023-09-30T08:26:30;16.50;99.90
11855;DHT22;5987;53.140;8.904;2023-09-30T08:29:35;16.50;99.90
11855;DHT22;5987;53.140;8.904;2023-09-30T08:32:39;16.40;99.90
11855;DHT22;5987;53.140;8.904;2023-09-30T08:35:44;16.60;99.90
11855;DHT22;5987;53.140;8.904;2023-09-30T08:38:51;16.60;99.90
11855;DHT22;5987;53.140;8.904;2023-09-30T08:41:55;16.70;99.90
11855;DHT22;5987;53.140;8.904;2023-09-30T08:45:00;16.80;99.90
11855;DHT22;5987;53.140;8.904;2023-09-30T08:48:04;16.80;99.90
11855;DHT22;5987;53.140;8.904;2023-09-30T08:51:11;16.90;99.90
11855;DHT22;5987;53.140;8.904;2023-09-30T08:54:14;16.90;99.90
11855;DHT22;5987;53.140;8.904;2023-09-30T08:57:19;17.10;99.90
11855;DHT22;5987;53.140;8.904;2023-09-30T09:00:24;17.30;99.90
11855;DHT22;5987;53.140;8.904;2023-09-30T09:03:28;17.40;99.90
11855;DHT22;5987;53.140;8.904;2023-09-30T09:06:35;17.40;99.90
11855;DHT22;5987;53.140;8.904;2023-09-30T09:09:39;17.40;99.90
11855;DHT22;5987;53.140;8.904;2023-09-30T09:12:43;17.50;99.90
11855;DHT22;5987;53.140;8.904;2023-09-30T09:16:06;17.50;99.90
11855;DHT22;5987;53.140;8.904;2023-09-30T09:19:14;17.50;99.90
11855;DHT22;5987;53.140;8.904;2023-09-30T09:22:20;17.40;99.90
11855;DHT22;5987;53.140;8.904;2023-09-30T09:25:24;17.50;99.90
11855;DHT22;5987;53.140;8.904;2023-09-30T09:28:34;17.50;99.90
11855;DHT22;5987;53.140;8.904;2023-09-30T09:31:38;17.50;99.90
11855;DHT22;5987;53.140;8.904;2023-09-30T09:34:44;17.50;99.90
11855;DHT22;5987;53.140;8.904;2023-09-30T09:38:06;17.50;99.90
11855;DHT22;5987;53.140;8.904;2023-09-30T09:41:10;17.70;99.90
11855;DHT22;5987;53.140;8.904;2023-09-30T09:44:14;17.80;99.90
11855;DHT22;5987;53.140;8.904;2023-09-30T09:47:21;17.90;99.90
11855;DHT22;5987;53.140;8.904;2023-09-30T09:50:26;17.90;99.90
11855;DHT22;5987;53.140;8.904;2023-09-30T09:53:34;17.90;99.90
11855;DHT22;5987;53.140;8.904;2023-09-30T09:56:42;18.10;99.90
11855;DHT22;5987;53.140;8.904;2023-09-30T09:59:48;18.20;99.90
11855;DHT22;5987;53.140;8.904;2023-09-30T10:02:52;18.20;99.90
11855;DHT22;5987;53.140;8.904;2023-09-30T10:05:58;18.30;99.90
11855;DHT22;5987;53.140;8.904;2023-09-30T10:09:06;18.30;99.90
11855;DHT22;5987;53.140;8.904;2023-09-30T10:12:14;18.30;99.90
11855;DHT22;5987;53.140;8.904;2023-09-30T10:15:46;18.40;99.90
11855;DHT22;5987;53.140;8.904;2023-09-30T10:19:08;18.60;99.90
11855;DHT22;5987;53.140;8.904;2023-09-30T10:22:22;18.60;99.90
11855;DHT22;5987;53.140;8.904;2023-09-30T10:25:35;18.60;99.90
11855;DHT22;5987;53.140;8.904;2023-09-30T10:28:41;18.60;99.90
11855;DHT22;5987;53.140;8.904;2023-09-30T10:31:51;18.50;99.90
11855;DHT22;5987;53.140;8.904;2023-09-30T10:34:55;18.60;99.90
11855;DHT22;5987;53.140;8.904;2023-09-30T10:41:52;18.80;99.90
11855;DHT22;5987;53.140;8.904;2023-09-30T10:45:04;18.70;99.90
11855;DHT22;5987;53.140;8.904;2023-09-30T10:48:35;18.70;99.90
11855;DHT22;5987;53.140;8.904;2023-09-30T10:51:39;18.80;99.90
11855;DHT22;5987;53.140;8.904;2023-09-30T10:54:43;18.80;99.90
11855;DHT22;5987;53.140;8.904;2023-09-30T10:57:52;18.90;99.90
11855;DHT22;5987;53.140;8.904;2023-09-30T11:00:55;19.00;99.90
11855;DHT22;5987;53.140;8.904;2023-09-30T11:04:02;18.90;99.90
11855;DHT22;5987;53.140;8.904;2023-09-30T11:07:10;18.90;99.90
11855;DHT22;5987;53.140;8.904;2023-09-30T11:10:17;19.00;99.90
11855;DHT22;5987;53.140;8.904;2023-09-30T11:13:22;19.00;99.90
11855;DHT22;5987;53.140;8.904;2023-09-30T11:16:28;19.00;99.90
11855;DHT22;5987;53.140;8.904;2023-09-30T11:19:35;19.00;99.90
11855;DHT22;5987;53.140;8.904;2023-09-30T11:22:40;19.10;99.90
11855;DHT22;5987;53.140;8.904;2023-09-30T11:25:44;19.20;99.90
11855;DHT22;5987;53.140;8.904;2023-09-30T11:28:49;19.30;99.90
11855;DHT22;5987;53.140;8.904;2023-09-30T11:31:55;19.40;99.90
11855;DHT22;5987;53.140;8.904;2023-09-30T11:34:59;19.50;99.90
11855;DHT22;5987;53.140;8.904;2023-09-30T11:38:03;19.50;99.90
11855;DHT22;5987;53.140;8.904;2023-09-30T11:41:07;19.40;99.90
11855;DHT22;5987;53.140;8.904;2023-09-30T11:44:12;19.40;99.90
11855;DHT22;5987;53.140;8.904;2023-09-30T11:47:28;19.40;99.90
11855;DHT22;5987;53.140;8.904;2023-09-30T11:50:45;19.40;99.90
11855;DHT22;5987;53.140;8.904;2023-09-30T11:53:50;19.40;99.90
11855;DHT22;5987;53.140;8.904;2023-09-30T11:56:55;19.50;99.90
11855;DHT22;5987;53.140;8.904;2023-09-30T12:00:00;19.60;99.90
11855;DHT22;5987;53.140;8.904;2023-09-30T12:03:15;19.70;99.90
11855;DHT22;5987;53.140;8.904;2023-09-30T12:06:18;19.70;99.90
11855;DHT22;5987;53.140;8.904;2023-09-30T12:09:22;19.60;99.90
11855;DHT22;5987;53.140;8.904;2023-09-30T12:12:29;19.60;99.90
11855;DHT22;5987;53.140;8.904;2023-09-30T12:15:34;19.50;99.90
11855;DHT22;5987;53.140;8.904;2023-09-30T12:18:38;19.40;99.90
11855;DHT22;5987;53.140;8.904;2023-09-30T12:21:43;19.40;99.90
11855;DHT22;5987;53.140;8.904;2023-09-30T12:24:50;19.50;99.90
11855;DHT22;5987;53.140;8.904;2023-09-30T12:27:54;19.60;99.90
11855;DHT22;5987;53.140;8.904;2023-09-30T12:30:59;19.50;99.90
11855;DHT22;5987;53.140;8.904;2023-09-30T12:34:05;19.70;99.90
11855;DHT22;5987;53.140;8.904;2023-09-30T12:37:08;19.70;99.90
11855;DHT22;5987;53.140;8.904;2023-09-30T12:40:12;19.60;99.90
11855;DHT22;5987;53.140;8.904;2023-09-30T12:43:19;19.40;99.90
11855;DHT22;5987;53.140;8.904;2023-09-30T12:46:24;19.30;99.90
11855;DHT22;5987;53.140;8.904;2023-09-30T12:49:28;19.20;99.90
11855;DHT22;5987;53.140;8.904;2023-09-30T12:52:31;19.20;99.90
11855;DHT22;5987;53.140;8.904;2023-09-30T12:55:35;19.20;99.90
11855;DHT22;5987;53.140;8.904;2023-09-30T12:58:39;19.20;99.90
11855;DHT22;5987;53.140;8.904;2023-09-30T13:01:44;19.30;99.90
11855;DHT22;5987;53.140;8.904;2023-09-30T13:04:50;19.40;99.90
11855;DHT22;5987;53.140;8.904;2023-09-30T13:07:53;19.50;99.90
11855;DHT22;5987;53.140;8.904;2023-09-30T13:10:57;19.50;99.90
11855;DHT22;5987;53.140;8.904;2023-09-30T13:14:01;19.60;99.90
11855;DHT22;5987;53.140;8.904;2023-09-30T13:17:06;19.50;99.90
11855;DHT22;5987;53.140;8.904;2023-09-30T13:20:12;19.50;99.90
11855;DHT22;5987;53.140;8.904;2023-09-30T13:23:15;19.40;99.90
11855;DHT22;5987;53.140;8.904;2023-09-30T13:26:22;19.50;99.90
11855;DHT22;5987;53.140;8.904;2023-09-30T13:29:26;19.40;99.90
11855;DHT22;5987;53.140;8.904;2023-09-30T13:32:31;19.40;99.90
11855;DHT22;5987;53.140;8.904;2023-09-30T13:35:38;19.50;99.90
11855;DHT22;5987;53.140;8.904;2023-09-30T13:38:41;19.40;99.90
11855;DHT22;5987;53.140;8.904;2023-09-30T13:41:45;19.40;99.90
11855;DHT22;5987;53.140;8.904;2023-09-30T13:44:50;19.50;99.90
11855;DHT22;5987;53.140;8.904;2023-09-30T13:47:55;19.50;99.90
11855;DHT22;5987;53.140;8.904;2023-09-30T13:51:04;19.60;99.90
11855;DHT22;5987;53.140;8.904;2023-09-30T13:54:08;19.60;99.90
11855;DHT22;5987;53.140;8.904;2023-09-30T13:57:12;19.60;99.90
11855;DHT22;5987;53.140;8.904;2023-09-30T14:00:17;19.60;99.90
11855;DHT22;5987;53.140;8.904;2023-09-30T14:03:23;19.60;99.90
11855;DHT22;5987;53.140;8.904;2023-09-30T14:06:27;19.50;99.90
11855;DHT22;5987;53.140;8.904;2023-09-30T14:09:32;19.50;99.90
11855;DHT22;5987;53.140;8.904;2023-09-30T14:12:37;19.40;99.90
11855;DHT22;5987;53.140;8.904;2023-09-30T14:15:42;19.30;99.90
11855;DHT22;5987;53.140;8.904;2023-09-30T14:18:47;19.20;99.90
11855;DHT22;5987;53.140;8.904;2023-09-30T14:21:52;19.30;99.90
11855;DHT22;5987;53.140;8.904;2023-09-30T14:24:55;19.20;99.90
11855;DHT22;5987;53.140;8.904;2023-09-30T14:27:59;19.00;99.90
11855;DHT22;5987;53.140;8.904;2023-09-30T14:31:03;18.90;99.90
11855;DHT22;5987;53.140;8.904;2023-09-30T14:34:09;18.80;99.90
11855;DHT22;5987;53.140;8.904;2023-09-30T14:37:13;18.80;99.90
11855;DHT22;5987;53.140;8.904;2023-09-30T14:40:17;18.80;99.90
11855;DHT22;5987;53.140;8.904;2023-09-30T14:43:20;18.90;99.90
11855;DHT22;5987;53.140;8.904;2023-09-30T14:46:24;18.90;99.90
11855;DHT22;5987;53.140;8.904;2023-09-30T14:49:30;19.00;99.90
11855;DHT22;5987;53.140;8.904;2023-09-30T14:52:34;19.10;99.90
11855;DHT22;5987;53.140;8.904;2023-09-30T14:55:38;19.10;99.90
11855;DHT22;5987;53.140;8.904;2023-09-30T14:58:42;19.10;99.90
11855;DHT22;5987;53.140;8.904;2023-09-30T15:01:47;19.20;99.90
11855;DHT22;5987;53.140;8.904;2023-09-30T15:04:53;19.20;99.90
11855;DHT22;5987;53.140;8.904;2023-09-30T15:07:57;19.20;99.90
11855;DHT22;5987;53.140;8.904;2023-09-30T15:11:02;19.20;99.90
11855;DHT22;5987;53.140;8.904;2023-09-30T15:14:05;19.10;99.90
11855;DHT22;5987;53.140;8.904;2023-09-30T15:17:10;19.00;99.90
11855;DHT22;5987;53.140;8.904;2023-09-30T15:20:15;19.00;99.90
11855;DHT22;5987;53.140;8.904;2023-09-30T15:23:19;19.00;99.90
11855;DHT22;5987;53.140;8.904;2023-09-30T15:26:23;18.90;99.90
11855;DHT22;5987;53.140;8.904;2023-09-30T15:29:27;18.80;99.90
11855;DHT22;5987;53.140;8.904;2023-09-30T15:32:30;18.80;99.90
11855;DHT22;5987;53.140;8.904;2023-09-30T15:35:35;18.80;99.90
11855;DHT22;5987;53.140;8.904;2023-09-30T15:38:40;18.70;99.90
11855;DHT22;5987;53.140;8.904;2023-09-30T15:41:43;18.70;99.90
11855;DHT22;5987;53.140;8.904;2023-09-30T15:44:47;18.70;99.90
11855;DHT22;5987;53.140;8.904;2023-09-30T15:47:55;18.80;99.90
11855;DHT22;5987;53.140;8.904;2023-09-30T15:51:00;18.80;99.90
11855;DHT22;5987;53.140;8.904;2023-09-30T15:54:05;18.70;99.90
11855;DHT22;5987;53.140;8.904;2023-09-30T15:57:09;18.70;99.90
11855;DHT22;5987;53.140;8.904;2023-09-30T16:00:13;18.70;99.90
11855;DHT22;5987;53.140;8.904;2023-09-30T16:03:17;18.50;99.90
11855;DHT22;5987;53.140;8.904;2023-09-30T16:06:23;18.60;99.90
11855;DHT22;5987;53.140;8.904;2023-09-30T16:09:27;18.50;99.90
11855;DHT22;5987;53.140;8.904;2023-09-30T16:12:32;18.50;99.90
11855;DHT22;5987;53.140;8.904;2023-09-30T16:15:38;18.40;99.90
11855;DHT22;5987;53.140;8.904;2023-09-30T16:18:43;18.40;99.90
11855;DHT22;5987;53.140;8.904;2023-09-30T16:21:48;18.30;99.90
11855;DHT22;5987;53.140;8.904;2023-09-30T16:24:52;18.30;99.90
11855;DHT22;5987;53.140;8.904;2023-09-30T16:27:56;18.10;99.90
11855;DHT22;5987;53.140;8.904;2023-09-30T16:31:02;17.90;99.90
11855;DHT22;5987;53.140;8.904;2023-09-30T16:34:06;17.80;99.90
11855;DHT22;5987;53.140;8.904;2023-09-30T16:37:11;17.70;99.90
11855;DHT22;5987;53.140;8.904;2023-09-30T16:40:15;17.60;99.90
11855;DHT22;5987;53.140;8.904;2023-09-30T16:43:19;17.50;99.90
11855;DHT22;5987;53.140;8.904;2023-09-30T16:46:23;17.40;99.90
11855;DHT22;5987;53.140;8.904;2023-09-30T16:49:26;17.30;99.90
11855;DHT22;5987;53.140;8.904;2023-09-30T16:52:32;17.30;99.90
11855;DHT22;5987;53.140;8.904;2023-09-30T16:55:36;17.20;99.90
11855;DHT22;5987;53.140;8.904;2023-09-30T16:58:40;17.10;99.90
11855;DHT22;5987;53.140;8.904;2023-09-30T17:01:43;16.90;99.90
11855;DHT22;5987;53.140;8.904;2023-09-30T17:04:49;16.80;99.90
11855;DHT22;5987;53.140;8.904;2023-09-30T17:07:56;16.80;99.90
11855;DHT22;5987;53.140;8.904;2023-09-30T17:10:59;16.80;99.90
11855;DHT22;5987;53.140;8.904;2023-09-30T17:14:03;16.80;99.90
11855;DHT22;5987;53.140;8.904;2023-09-30T17:17:07;16.70;99.90
11855;DHT22;5987;53.140;8.904;2023-09-30T17:20:11;16.70;99.90
11855;DHT22;5987;53.140;8.904;2023-09-30T17:23:20;16.60;99.90
11855;DHT22;5987;53.140;8.904;2023-09-30T17:26:24;16.60;99.90
11855;DHT22;5987;53.140;8.904;2023-09-30T17:29:27;16.60;99.90
11855;DHT22;5987;53.140;8.904;2023-09-30T17:32:31;16.60;99.90
11855;DHT22;5987;53.140;8.904;2023-09-30T17:35:37;16.40;99.90
11855;DHT22;5987;53.140;8.904;2023-09-30T17:38:43;16.40;99.90
11855;DHT22;5987;53.140;8.904;2023-09-30T17:41:47;16.40;99.90
11855;DHT22;5987;53.140;8.904;2023-09-30T17:44:52;16.40;99.90
11855;DHT22;5987;53.140;8.904;2023-09-30T17:47:57;16.40;99.90
11855;DHT22;5987;53.140;8.904;2023-09-30T17:51:00;16.40;99.90
11855;DHT22;5987;53.140;8.904;2023-09-30T17:54:06;16.30;99.90
11855;DHT22;5987;53.140;8.904;2023-09-30T17:57:09;16.30;99.90
11855;DHT22;5987;53.140;8.904;2023-09-30T18:00:14;16.20;99.90
11855;DHT22;5987;53.140;8.904;2023-09-30T18:03:19;16.10;99.90
11855;DHT22;5987;53.140;8.904;2023-09-30T18:06:23;16.10;99.90
11855;DHT22;5987;53.140;8.904;2023-09-30T18:09:28;16.10;99.90
11855;DHT22;5987;53.140;8.904;2023-09-30T18:12:33;16.10;99.90
11855;DHT22;5987;53.140;8.904;2023-09-30T18:15:36;16.10;99.90
11855;DHT22;5987;53.140;8.904;2023-09-30T18:18:40;16.20;99.90
11855;DHT22;5987;53.140;8.904;2023-09-30T18:21:44;16.10;99.90
11855;DHT22;5987;53.140;8.904;2023-09-30T18:24:50;16.00;99.90
11855;DHT22;5987;53.140;8.904;2023-09-30T18:27:54;16.00;99.90
11855;DHT22;5987;53.140;8.904;2023-09-30T18:30:57;16.00;99.90
11855;DHT22;5987;53.140;8.904;2023-09-30T18:34:02;16.00;99.90
11855;DHT22;5987;53.140;8.904;2023-09-30T18:37:07;16.00;99.90
11855;DHT22;5987;53.140;8.904;2023-09-30T18:40:13;15.90;99.90
11855;DHT22;5987;53.140;8.904;2023-09-30T18:43:17;15.90;99.90
11855;DHT22;5987;53.140;8.904;2023-09-30T18:46:20;15.90;99.90
11855;DHT22;5987;53.140;8.904;2023-09-30T18:49:24;15.90;99.90
11855;DHT22;5987;53.140;8.904;2023-09-30T18:52:28;15.80;99.90
11855;DHT22;5987;53.140;8.904;2023-09-30T18:55:36;15.80;99.90
11855;DHT22;5987;53.140;8.904;2023-09-30T18:58:41;15.80;99.90
11855;DHT22;5987;53.140;8.904;2023-09-30T19:01:45;15.80;99.90
11855;DHT22;5987;53.140;8.904;2023-09-30T19:04:49;15.70;99.90
11855;DHT22;5987;53.140;8.904;2023-09-30T19:07:53;15.70;99.90
11855;DHT22;5987;53.140;8.904;2023-09-30T19:11:01;15.70;99.90
11855;DHT22;5987;53.140;8.904;2023-09-30T19:14:05;15.70;99.90
11855;DHT22;5987;53.140;8.904;2023-09-30T19:17:09;15.60;99.90
11855;DHT22;5987;53.140;8.904;2023-09-30T19:20:13;15.60;99.90
11855;DHT22;5987;53.140;8.904;2023-09-30T19:23:17;15.60;99.90
11855;DHT22;5987;53.140;8.904;2023-09-30T19:26:23;15.60;99.90
11855;DHT22;5987;53.140;8.904;2023-09-30T19:29:26;15.70;99.90
11855;DHT22;5987;53.140;8.904;2023-09-30T19:32:30;15.70;99.90
11855;DHT22;5987;53.140;8.904;2023-09-30T19:35:35;15.60;99.90
11855;DHT22;5987;53.140;8.904;2023-09-30T19:38:41;15.60;99.90
11855;DHT22;5987;53.140;8.904;2023-09-30T19:41:47;15.60;99.90
11855;DHT22;5987;53.140;8.904;2023-09-30T19:44:50;15.60;99.90
11855;DHT22;5987;53.140;8.904;2023-09-30T19:47:54;15.60;99.90
11855;DHT22;5987;53.140;8.904;2023-09-30T19:50:58;15.60;99.90